Time;durP1;ratioP1;P1;durP2;ratioP2;P2;SDS_P1;SDS_P2;PMS_P1;PMS_P2;Temp;Humidity;BMP_temperature;BMP_pressure;BME280_temperature;BME280_humidity;BME280_pressure;Samples;Min_cycle;Max_cycle;Signal;HPM_P1;HPM_P2
2022/10/07 00:02:42;;;;;;;19.20;10.90;;;;;;;6.02;77.54;101651.97;30832060;28;96822;-64
2022/10/07 00:17:43;;;;;;;22.73;12.32;;;;;;;5.87;77.79;101652.97;30843937;28;96687;-65
2022/10/07 00:32:44;;;;;;;17.85;11.35;;;;;;;5.58;78.23;101646.03;30851552;28;97399;-65
2022/10/07 00:47:47;;;;;;;19.15;11.88;;;;;;;5.49;78.89;101644.00;30850310;28;96703;-65
2022/10/07 01:02:48;;;;;;;23.83;10.97;;;;;;;5.35;79.00;101631.69;30849978;28;96645;-65
2022/10/07 01:18:27;;;;;;;19.52;11.23;;;;;;;5.21;78.98;101621.22;30857064;28;97138;-63
2022/10/07 01:33:31;;;;;;;18.17;10.43;;;;;;;5.05;79.21;101602.84;30864674;28;96894;-65
2022/10/07 01:48:32;;;;;;;20.67;11.97;;;;;;;4.96;79.41;101599.03;30865665;28;97260;-64
2022/10/07 02:03:45;;;;;;;22.67;12.60;;;;;;;4.82;79.50;101572.66;30825790;28;97735;-65
2022/10/07 02:18:50;;;;;;;19.73;12.27;;;;;;;4.66;79.68;101564.84;30757035;28;97062;-65
2022/10/07 02:33:53;;;;;;;23.77;13.38;;;;;;;4.54;79.91;101551.50;30739118;28;96918;-65
2022/10/07 02:49:03;;;;;;;30.08;14.75;;;;;;;4.43;80.04;101553.13;30737133;28;97214;-65
2022/10/07 03:04:04;;;;;;;36.00;13.30;;;;;;;4.33;80.00;101551.09;30783753;28;97636;-64
2022/10/07 03:19:05;;;;;;;30.05;14.23;;;;;;;4.25;80.05;101540.13;30832086;28;97634;-64
2022/10/07 03:34:05;;;;;;;24.77;13.50;;;;;;;4.12;80.03;101529.50;30732184;28;96736;-64
2022/10/07 03:49:05;;;;;;;23.40;13.23;;;;;;;4.05;80.51;101521.13;30733898;28;104732;-65
2022/10/07 04:04:06;;;;;;;26.70;12.43;;;;;;;3.99;80.73;101502.22;30742769;28;112423;-65
2022/10/07 04:19:06;;;;;;;21.20;11.18;;;;;;;3.91;80.71;101489.53;30851731;28;97121;-64
2022/10/07 04:34:07;;;;;;;18.23;10.77;;;;;;;3.90;81.10;101482.53;30848706;28;100075;-63
2022/10/07 04:49:08;;;;;;;20.98;11.55;;;;;;;3.83;81.10;101475.97;30824177;28;97293;-63
2022/10/07 05:04:10;;;;;;;26.65;12.27;;;;;;;3.73;81.23;101473.03;30838839;28;98189;-60
2022/10/07 05:19:11;;;;;;;22.05;11.38;;;;;;;3.67;81.26;101463.72;30835786;28;98075;-62
2022/10/07 05:34:11;;;;;;;17.13;11.02;;;;;;;3.94;81.71;101465.59;30839867;28;97437;-59
2022/10/07 05:49:11;;;;;;;18.05;12.68;;;;;;;4.52;81.95;101452.25;30830597;28;98553;-61
2022/10/07 06:04:12;;;;;;;22.70;12.85;;;;;;;5.65;82.46;101448.19;30831338;28;118958;-65
2022/10/07 06:19:21;;;;;;;19.73;11.35;;;;;;;7.01;81.88;101442.84;30830306;28;97222;-62
2022/10/07 06:34:21;;;;;;;15.60;9.80;;;;;;;8.38;81.20;101432.13;30828421;28;97767;-61
2022/10/07 06:49:22;;;;;;;16.08;10.40;;;;;;;9.86;79.17;101445.41;30823976;28;98620;-63
2022/10/07 07:04:23;;;;;;;12.90;9.27;;;;;;;11.34;78.51;101440.03;30822158;28;98251;-62
2022/10/07 07:19:23;;;;;;;13.80;9.27;;;;;;;12.86;74.91;101425.38;30847839;28;98142;-65
2022/10/07 07:34:24;;;;;;;14.77;8.68;;;;;;;14.17;72.70;101421.72;30851146;28;108024;-62
2022/10/07 07:49:26;;;;;;;15.07;9.43;;;;;;;15.19;69.48;101408.88;30860567;28;96737;-65
2022/10/07 08:04:26;;;;;;;;;;;;;;;16.55;67.44;101381.84;30965633;28;97266;-61
2022/10/07 08:19:28;;;;;;;10.55;6.30;;;;;;;17.30;64.80;101371.25;30968404;28;97403;-60
2022/10/07 08:34:28;;;;;;;14.63;6.73;;;;;;;19.32;60.37;101350.63;30976821;28;97332;-62
2022/10/07 08:49:52;;;;;;;10.52;6.20;;;;;;;31.24;39.01;101359.47;30971901;28;98003;-62
2022/10/07 09:05:16;;;;;;;8.60;5.27;;;;;;;31.29;33.56;101331.91;30909142;28;96637;-62
2022/10/07 09:20:19;;;;;;;9.37;5.37;;;;;;;31.82;27.83;101312.91;30938417;28;97108;-60
2022/10/07 09:35:23;;;;;;;9.20;5.47;;;;;;;28.63;30.10;101283.56;30961217;28;97832;-63
2022/10/07 09:50:41;;;;;;;10.77;4.93;;;;;;;34.37;24.39;101275.22;30934842;28;97054;-63
2022/10/07 10:05:52;;;;;;;6.23;3.73;;;;;;;31.51;25.85;101232.41;30947017;28;96719;-61
2022/10/07 10:20:53;;;;;;;8.67;4.00;;;;;;;36.57;20.10;101230.78;30929787;28;96878;-60
2022/10/07 10:36:07;;;;;;;7.83;4.07;;;;;;;36.42;20.69;101199.56;30868536;28;98409;-61
2022/10/07 10:51:42;;;;;;;7.57;4.03;;;;;;;39.79;17.98;101172.63;30897108;28;96753;-61
2022/10/07 11:06:50;;;;;;;9.20;4.10;;;;;;;42.61;15.77;101126.22;30919095;28;97221;-61
2022/10/07 11:21:56;;;;;;;8.03;4.10;;;;;;;44.82;13.87;101111.09;30855514;28;98070;-62
2022/10/07 11:37:07;;;;;;;5.97;3.30;;;;;;;42.80;15.11;101079.78;30811556;28;98035;-62
2022/10/07 11:52:19;;;;;;;7.77;3.40;;;;;;;42.97;14.51;101053.28;30851184;28;97383;-62
2022/10/07 12:07:39;;;;;;;10.97;3.30;;;;;;;44.59;13.83;101016.47;30848044;28;96905;-63
2022/10/07 12:50:39;;;;;;;9.73;4.00;;;;;;;45.12;13.63;100943.16;31077824;28;96754;-62
2022/10/07 13:06:12;;;;;;;11.23;4.40;;;;;;;43.63;14.34;100916.63;31072501;28;98759;-63
2022/10/07 13:21:20;;;;;;;7.40;4.23;;;;;;;42.01;15.75;100885.78;31070462;28;99574;-62
2022/10/07 13:36:27;;;;;;;8.40;5.83;;;;;;;41.38;16.26;100863.28;31069848;28;97641;-64
2022/10/07 13:51:29;;;;;;;10.20;5.17;;;;;;;40.32;17.20;100826.72;30990017;28;97420;-67
2022/10/07 14:06:43;;;;;;;7.07;4.47;;;;;;;38.76;18.63;100801.78;30986890;28;97371;-69
2022/10/07 14:21:44;;;;;;;12.37;5.17;;;;;;;36.64;20.50;100775.19;30978764;28;97896;-69
2022/10/07 14:37:06;;;;;;;7.53;3.95;;;;;;;35.07;22.12;100754.75;30907081;28;97105;-67
2022/10/07 14:52:15;;;;;;;9.43;4.23;;;;;;;31.77;25.08;100730.91;30983138;28;97165;-68
2022/10/07 15:07:16;;;;;;;8.90;4.97;;;;;;;26.47;31.82;100715.75;30980633;28;97133;-71
2022/10/07 15:22:17;;;;;;;12.85;5.93;;;;;;;23.65;37.16;100704.66;30979511;28;97267;-64
2022/10/07 15:37:18;;;;;;;24.98;13.98;;;;;;;21.63;41.10;100704.03;30829312;28;96825;-65
2022/10/07 15:52:18;;;;;;;15.95;10.25;;;;;;;20.27;45.02;100685.19;30873032;28;97328;-65
2022/10/07 16:07:19;;;;;;;15.20;7.70;;;;;;;18.98;48.23;100675.41;30947591;28;116804;-62
2022/10/07 16:22:19;;;;;;;10.65;7.63;;;;;;;17.88;51.47;100673.31;30921165;28;97000;-60
2022/10/07 16:37:19;;;;;;;14.00;7.65;;;;;;;17.18;54.32;100666.34;30822872;28;115874;-62
2022/10/07 16:52:20;;;;;;;12.57;8.77;;;;;;;16.61;56.31;100657.56;30856040;28;104745;-63
2022/10/07 17:07:20;;;;;;;16.63;9.32;;;;;;;16.19;58.28;100648.63;30841658;28;97045;-65
2022/10/07 17:22:20;;;;;;;14.30;10.23;;;;;;;15.87;60.20;100643.63;30849640;28;97047;-63
2022/10/07 17:37:21;;;;;;;22.15;10.75;;;;;;;15.65;61.19;100628.50;30867093;28;112266;-62
2022/10/07 17:52:21;;;;;;;19.45;13.68;;;;;;;15.31;62.94;100617.47;30866954;28;97501;-63
2022/10/07 18:07:22;;;;;;;21.88;16.23;;;;;;;15.05;64.09;100612.66;30863877;28;96699;-63
2022/10/07 18:22:23;;;;;;;26.77;19.98;;;;;;;14.94;65.63;100597.88;30868941;28;96866;-63
2022/10/07 18:37:23;;;;;;;31.60;19.07;;;;;;;14.86;66.43;100588.09;30853380;28;97153;-63
2022/10/07 18:52:23;;;;;;;25.48;18.05;;;;;;;14.74;67.11;100575.38;30854404;28;97632;-62
2022/10/07 19:07:24;;;;;;;23.80;15.27;;;;;;;14.85;67.94;100570.31;30874374;28;108035;-63
2022/10/07 19:22:24;;;;;;;23.88;14.90;;;;;;;14.81;68.37;100581.63;30972559;28;105911;-63
2022/10/07 19:37:24;;;;;;;20.25;15.45;;;;;;;14.83;68.70;100567.00;30968612;28;117093;-62
2022/10/07 19:52:26;;;;;;;20.58;14.80;;;;;;;14.72;69.13;100556.75;30894698;28;96868;-62
2022/10/07 20:07:26;;;;;;;18.83;11.40;;;;;;;14.71;69.28;100541.72;30845648;28;97159;-63
2022/10/07 20:22:26;;;;;;;16.65;12.15;;;;;;;14.56;69.27;100550.56;30840756;28;109843;-63
2022/10/07 20:37:27;;;;;;;18.30;12.15;;;;;;;14.47;70.36;100542.81;30958329;28;97860;-62
2022/10/07 20:52:30;;;;;;;16.33;12.18;;;;;;;14.55;70.53;100532.81;30971931;28;96826;-62
2022/10/07 21:07:31;;;;;;;19.07;13.20;;;;;;;14.59;71.05;100521.72;30984988;28;96787;-62
2022/10/07 21:22:31;;;;;;;16.58;12.20;;;;;;;14.61;71.10;100515.16;30976632;28;99469;-62
2022/10/07 21:37:32;;;;;;;15.48;10.10;;;;;;;14.74;70.93;100508.31;30967506;28;97788;-62
2022/10/07 21:52:32;;;;;;;12.63;8.00;;;;;;;14.97;70.88;100492.06;30981915;28;105334;-62
2022/10/07 22:22:51;;;;;;;10.50;6.20;;;;;;;15.31;70.13;100463.63;30861747;28;96608;-66
2022/10/07 22:37:54;;;;;;;10.82;6.72;;;;;;;15.22;69.80;100447.66;30862761;28;114781;-66
2022/10/07 22:52:55;;;;;;;10.20;8.10;;;;;;;15.13;69.31;100432.75;30862397;28;96715;-67
2022/10/07 23:07:55;;;;;;;11.17;7.97;;;;;;;14.92;69.31;100425.56;30861008;28;97314;-68
2022/10/07 23:22:57;;;;;;;9.40;7.45;;;;;;;14.84;69.92;100425.69;30857924;28;118906;-67
2022/10/07 23:37:59;;;;;;;7.87;6.60;;;;;;;14.70;69.94;100433.59;30858181;28;96820;-65
2022/10/07 23:52:59;;;;;;;9.00;7.20;;;;;;;14.63;69.94;100431.88;30857530;28;96865;-62
